Terminal Aerodrome Forecast
Issued by NWS Cleveland, OH

Home | Current Version | Previous Version | Graphics & Text | Print | Product List | Glossary On
Versions: 1 2 3 4 5 6 7 8 9 10 11 12 13
000
FTUS41 KCLE 191100 RRA
TAFYNG
TAF
KYNG 191141Z 1912/2012 31006KT P6SM -SN OVC004
      TEMPO 1912/1914 3SM -SN
     FM191500 31006KT P6SM OVC008
     FM191800 33006KT P6SM OVC015
     FM200000 VRB03KT P6SM OVC025=

USA.gov is the U.S. government's official web portal to all federal, state and local government web resources and services.